Terminal Aerodrome Forecast
Issued by NWS Shreveport, LA

Home | Current Version | Previous Version | Text Only | Print | Product List | Glossary On
Versions: 1 2 3 4 5 6 7 8 9 10 11 12 13 14 15 16 17 18 19
000
FTUS44 KSHV 291735
TAFMLU
TAF
KMLU 291735Z 2918/3018 17008KT P6SM SCT030 BKN050
     FM292100 18012KT P6SM VCTS BKN050CB
      TEMPO 2922/3002 1SM +TSRA BR OVC020CB
     FM300300 10004KT P6SM BKN100
      TEMPO 3010/3014 4SM BR BKN025
     FM301400 25008KT P6SM VCTS BKN040CB=

USA.gov is the U.S. government's official web portal to all federal, state and local government web resources and services.